createdAt,value
2022-11-20T00:01:14.848Z,15.87
2022-11-20T00:03:45.722Z,17.60
2022-11-20T00:06:19.318Z,13.13
2022-11-20T00:08:50.117Z,16.37
2022-11-20T00:11:20.518Z,15.80
2022-11-20T00:13:48.664Z,14.23
2022-11-20T00:16:17.185Z,16.67
2022-11-20T00:18:44.882Z,17.43
2022-11-20T00:21:13.046Z,16.60
2022-11-20T00:23:40.465Z,15.73
2022-11-20T00:26:08.920Z,14.37
2022-11-20T00:28:36.073Z,13.07
2022-11-20T00:31:04.640Z,13.00
2022-11-20T00:33:31.843Z,15.87
2022-11-20T00:36:05.882Z,13.57
2022-11-20T00:38:38.718Z,16.57
2022-11-20T00:41:12.756Z,15.40
2022-11-20T00:43:43.671Z,16.13
2022-11-20T00:46:11.786Z,14.80
2022-11-20T00:48:38.858Z,13.47
2022-11-20T00:51:06.156Z,12.07
2022-11-20T00:53:33.577Z,12.63
2022-11-20T00:56:06.100Z,13.17
2022-11-20T00:58:34.892Z,17.13
2022-11-20T01:01:06.918Z,14.83
2022-11-20T01:03:34.705Z,11.33
2022-11-20T01:06:02.579Z,21.93
2022-11-20T01:08:37.922Z,15.17
2022-11-20T01:11:06.619Z,17.13
2022-11-20T01:13:40.152Z,15.00
2022-11-20T01:16:13.950Z,14.70
2022-11-20T01:18:42.260Z,14.40
2022-11-20T01:21:10.735Z,14.37
2022-11-20T01:23:39.044Z,14.50
2022-11-20T01:26:07.432Z,12.20
2022-11-20T01:28:35.348Z,15.50
2022-11-20T01:31:03.639Z,16.83
2022-11-20T01:33:30.700Z,17.63
2022-11-20T01:36:04.641Z,16.77
2022-11-20T01:38:31.689Z,16.10
2022-11-20T01:41:01.660Z,14.30
2022-11-20T01:43:29.647Z,15.07
2022-11-20T01:46:01.139Z,16.73
2022-11-20T01:48:30.224Z,15.00
2022-11-20T01:50:58.571Z,15.83
2022-11-20T01:53:26.864Z,18.50
2022-11-20T01:55:57.524Z,16.73
2022-11-20T01:58:29.206Z,17.90
2022-11-20T02:00:56.459Z,17.13
2022-11-20T02:03:23.564Z,15.20
2022-11-20T02:05:57.104Z,22.13
2022-11-20T02:08:25.086Z,26.80
2022-11-20T02:10:52.210Z,25.83
2022-11-20T02:13:37.971Z,20.40
2022-11-20T02:16:05.356Z,24.10
2022-11-20T02:18:32.462Z,21.10
2022-11-20T02:21:08.884Z,21.03
2022-11-20T02:23:53.390Z,20.63
2022-11-20T02:26:21.766Z,19.63
2022-11-20T02:28:48.800Z,17.63
2022-11-20T02:31:15.986Z,19.93
2022-11-20T02:33:43.057Z,21.07
2022-11-20T02:36:12.984Z,18.70
2022-11-20T02:38:40.059Z,18.43
2022-11-20T02:41:07.151Z,16.67
2022-11-20T02:43:34.248Z,17.03
2022-11-20T02:46:01.495Z,19.67
2022-11-20T02:48:32.701Z,16.07
2022-11-20T02:51:01.075Z,18.13
2022-11-20T02:53:28.143Z,20.10
2022-11-20T02:55:55.212Z,19.57
2022-11-20T02:58:22.276Z,17.27
2022-11-20T03:00:49.346Z,20.43
2022-11-20T03:03:16.492Z,15.50
2022-11-20T03:05:43.568Z,16.87
2022-11-20T03:08:10.925Z,17.27
2022-11-20T03:10:38.032Z,18.17
2022-11-20T03:13:05.070Z,19.40
2022-11-20T03:15:32.121Z,16.70
2022-11-20T03:17:59.341Z,18.83
2022-11-20T03:20:26.404Z,18.87
2022-11-20T03:22:55.075Z,19.83
2022-11-20T03:25:22.481Z,16.73
2022-11-20T03:27:49.558Z,18.37
2022-11-20T03:30:16.737Z,16.77
2022-11-20T03:32:43.883Z,15.83
2022-11-20T03:35:11.069Z,14.83
2022-11-20T03:37:38.177Z,16.73
2022-11-20T03:40:05.539Z,18.17
2022-11-20T03:42:45.965Z,18.87
2022-11-20T03:45:14.772Z,14.87
2022-11-20T03:47:41.947Z,14.63
2022-11-20T03:50:09.618Z,17.03
2022-11-20T03:52:36.759Z,13.07
2022-11-20T03:55:03.930Z,16.77
2022-11-20T03:57:31.221Z,18.93
2022-11-20T03:59:58.276Z,13.90
2022-11-20T04:02:25.365Z,15.70
2022-11-20T04:04:52.413Z,14.60
2022-11-20T04:07:19.540Z,17.77
2022-11-20T04:09:46.697Z,17.73
2022-11-20T04:12:13.760Z,18.80
2022-11-20T04:14:40.855Z,15.37
2022-11-20T04:17:07.968Z,15.37
2022-11-20T04:19:35.046Z,14.57
2022-11-20T04:22:02.200Z,17.33
2022-11-20T04:24:29.307Z,19.60
2022-11-20T04:26:56.390Z,13.50
2022-11-20T04:29:23.762Z,14.03
2022-11-20T04:31:51.004Z,24.07
2022-11-20T04:34:18.146Z,15.87
2022-11-20T04:36:45.588Z,15.93
2022-11-20T04:39:14.054Z,15.13
2022-11-20T04:41:41.198Z,17.07
2022-11-20T04:44:08.319Z,16.03
2022-11-20T04:46:36.930Z,15.43
2022-11-20T04:49:04.106Z,14.17
2022-11-20T04:51:31.421Z,18.47
2022-11-20T04:53:58.490Z,14.53
2022-11-20T04:56:25.582Z,14.23
2022-11-20T04:58:52.631Z,15.47
2022-11-20T05:01:21.498Z,14.87
2022-11-20T05:03:48.827Z,16.30
2022-11-20T05:06:16.964Z,14.53
2022-11-20T05:08:44.389Z,15.93
2022-11-20T05:11:12.698Z,16.30
2022-11-20T05:13:40.291Z,15.50
2022-11-20T05:16:08.665Z,17.30
2022-11-20T05:18:37.314Z,17.13
2022-11-20T05:21:05.210Z,15.07
2022-11-20T05:23:33.565Z,13.57
2022-11-20T05:26:02.088Z,14.30
2022-11-20T05:28:30.541Z,16.47
2022-11-20T05:31:39.859Z,16.10
2022-11-20T05:34:28.026Z,15.40
2022-11-20T05:36:56.234Z,15.40
2022-11-20T05:39:24.536Z,11.80
2022-11-20T05:42:13.592Z,15.80
2022-11-20T05:44:42.959Z,21.77
2022-11-20T05:47:12.947Z,27.03
2022-11-20T05:49:40.934Z,27.73
2022-11-20T05:52:08.940Z,27.97
2022-11-20T05:54:36.910Z,21.00
2022-11-20T05:57:04.700Z,35.73
2022-11-20T05:59:32.520Z,26.53
2022-11-20T06:02:00.240Z,32.90
2022-11-20T06:04:27.734Z,32.53
2022-11-20T06:06:55.348Z,35.30
2022-11-20T06:09:23.222Z,38.93
2022-11-20T06:11:50.771Z,34.17
2022-11-20T06:14:18.115Z,35.73
2022-11-20T06:16:46.914Z,48.43
2022-11-20T06:19:15.847Z,38.23
2022-11-20T06:21:43.746Z,37.07
2022-11-20T06:24:12.304Z,41.07
2022-11-20T06:30:07.602Z,35.73
2022-11-20T06:32:37.055Z,58.13
2022-11-20T06:35:07.149Z,38.97
2022-11-20T06:37:38.632Z,46.73
2022-11-20T06:40:14.815Z,49.27
2022-11-20T06:42:43.900Z,44.17
2022-11-20T06:45:11.817Z,46.70
2022-11-20T06:47:38.934Z,46.57
2022-11-20T06:50:08.003Z,45.93
2022-11-20T06:52:43.383Z,50.20
2022-11-20T06:55:13.952Z,53.60
2022-11-20T06:57:44.566Z,55.50
2022-11-20T07:00:13.885Z,56.17
2022-11-20T07:02:41.062Z,51.17
2022-11-20T07:05:08.153Z,59.43
2022-11-20T07:07:35.305Z,52.30
2022-11-20T07:10:02.384Z,53.83
2022-11-20T07:12:29.425Z,52.80
2022-11-20T07:14:56.583Z,62.40
2022-11-20T07:17:23.750Z,69.03
2022-11-20T07:19:50.808Z,60.63
2022-11-20T07:22:18.156Z,51.57
2022-11-20T07:24:46.239Z,46.07
2022-11-20T07:27:13.607Z,64.23
2022-11-20T07:29:40.646Z,61.80
2022-11-20T07:32:07.816Z,51.50
2022-11-20T07:34:35.065Z,58.07
2022-11-20T07:37:06.033Z,52.33
2022-11-20T07:39:36.124Z,58.83
2022-11-20T07:42:03.212Z,56.50
2022-11-20T07:44:30.294Z,64.63
2022-11-20T07:46:57.332Z,63.93
2022-11-20T07:49:24.632Z,58.87
2022-11-20T07:51:54.615Z,49.13
2022-11-20T07:54:22.328Z,60.90
2022-11-20T07:56:50.191Z,62.20
2022-11-20T07:59:17.711Z,60.80
2022-11-20T08:01:44.797Z,63.00
2022-11-20T08:04:12.372Z,72.83
2022-11-20T08:09:54.948Z,94.47
2022-11-20T08:12:41.119Z,71.50
2022-11-20T08:15:13.151Z,48.00
2022-11-20T08:17:40.685Z,50.53
2022-11-20T08:20:07.955Z,51.83
2022-11-20T08:22:35.039Z,52.00
2022-11-20T08:25:02.466Z,50.73
2022-11-20T08:27:29.908Z,36.33
2022-11-20T08:29:57.210Z,40.40
2022-11-20T08:32:24.608Z,42.43
2022-11-20T08:34:51.746Z,46.03
2022-11-20T08:37:18.845Z,44.07
2022-11-20T08:39:45.922Z,46.70
2022-11-20T08:42:13.025Z,46.57
2022-11-20T08:44:40.312Z,43.33
2022-11-20T08:47:07.383Z,41.80
2022-11-20T08:49:37.332Z,38.43
2022-11-20T08:52:04.558Z,37.73
2022-11-20T08:54:31.631Z,34.20
2022-11-20T08:56:58.805Z,34.90
2022-11-20T08:59:58.633Z,27.53
2022-11-20T09:02:13.077Z,28.40
2022-11-20T09:04:40.266Z,29.80
2022-11-20T09:07:07.342Z,30.97
2022-11-20T09:09:34.557Z,24.57
2022-11-20T09:12:01.611Z,26.90
2022-11-20T09:14:33.993Z,27.70
2022-11-20T09:17:01.066Z,29.70
2022-11-20T09:19:35.528Z,30.87
2022-11-20T09:22:03.384Z,27.93
2022-11-20T09:24:30.876Z,33.20
2022-11-20T09:26:57.998Z,34.33
2022-11-20T09:29:25.973Z,35.80
2022-11-20T09:31:53.022Z,38.60
2022-11-20T09:34:20.096Z,35.80
2022-11-20T09:36:47.208Z,34.23
2022-11-20T09:39:14.316Z,34.87
2022-11-20T09:41:53.599Z,34.73
2022-11-20T09:44:28.776Z,35.87
2022-11-20T09:47:16.095Z,37.17
2022-11-20T09:50:02.006Z,35.63
2022-11-20T09:52:34.564Z,43.10
2022-11-20T09:55:03.737Z,41.23
2022-11-20T09:57:36.476Z,38.17
2022-11-20T10:00:05.682Z,38.93
2022-11-20T10:02:41.159Z,38.87
2022-11-20T10:05:13.879Z,33.00
2022-11-20T10:07:45.150Z,36.97
2022-11-20T10:10:20.833Z,31.77
2022-11-20T10:12:58.261Z,35.53
2022-11-20T10:15:25.374Z,33.33
2022-11-20T10:17:52.496Z,31.07
2022-11-20T10:20:19.668Z,30.40
2022-11-20T10:22:56.081Z,27.93
2022-11-20T10:25:26.108Z,32.10
2022-11-20T10:28:11.512Z,28.07
2022-11-20T10:30:50.217Z,28.27
2022-11-20T10:33:27.101Z,26.80
2022-11-20T10:35:57.169Z,26.40
2022-11-20T10:38:30.788Z,26.17
2022-11-20T10:41:21.099Z,29.43
2022-11-20T10:43:49.705Z,25.23
2022-11-20T10:46:18.888Z,24.00
2022-11-20T10:48:46.996Z,24.77
2022-11-20T10:51:14.728Z,22.63
2022-11-20T10:53:51.018Z,22.23
2022-11-20T10:56:21.426Z,18.70
2022-11-20T10:59:02.350Z,22.30
2022-11-20T11:01:31.129Z,20.90
2022-11-20T11:03:58.673Z,18.10
2022-11-20T11:06:25.776Z,19.20
2022-11-20T11:08:54.945Z,22.20
2022-11-20T11:11:23.484Z,20.80
2022-11-20T11:13:50.897Z,17.10
2022-11-20T11:16:27.927Z,18.13
2022-11-20T11:19:05.314Z,19.00
2022-11-20T11:21:32.539Z,16.23
2022-11-20T11:24:26.918Z,17.57
2022-11-20T11:26:59.951Z,18.57
2022-11-20T11:29:30.306Z,15.23
2022-11-20T11:32:29.952Z,16.37
2022-11-20T11:35:04.997Z,16.23
2022-11-20T11:37:36.892Z,22.43
2022-11-20T11:42:58.344Z,17.40
2022-11-20T11:45:26.261Z,15.43
2022-11-20T11:47:54.291Z,16.67
2022-11-20T11:50:25.869Z,13.60
2022-11-20T11:53:14.895Z,15.33
2022-11-20T11:55:47.590Z,18.90
2022-11-20T11:58:33.701Z,12.53
2022-11-20T12:01:04.948Z,13.47
2022-11-20T12:03:44.304Z,10.90
2022-11-20T12:06:15.655Z,13.13
2022-11-20T12:08:49.091Z,11.60
2022-11-20T12:11:20.172Z,11.63
2022-11-20T12:13:54.483Z,10.97
2022-11-20T12:16:22.285Z,10.80
2022-11-20T12:18:50.762Z,9.63
2022-11-20T12:21:44.284Z,10.07
2022-11-20T12:24:27.109Z,7.73
2022-11-20T12:27:12.990Z,9.10
2022-11-20T12:29:49.261Z,8.17
2022-11-20T12:32:16.347Z,9.37
2022-11-20T12:35:06.066Z,11.20
2022-11-20T12:37:45.040Z,7.93
2022-11-20T12:40:12.317Z,9.10
2022-11-20T12:43:04.088Z,8.67
2022-11-20T12:45:49.768Z,7.67
2022-11-20T12:48:31.601Z,7.53
2022-11-20T12:51:15.194Z,7.37
2022-11-20T12:53:45.436Z,10.77
2022-11-20T12:56:32.778Z,7.90
2022-11-20T12:59:02.712Z,9.17
2022-11-20T13:01:41.509Z,7.80
2022-11-20T13:04:28.900Z,12.23
2022-11-20T13:06:56.470Z,13.60
2022-11-20T13:09:24.616Z,11.73
2022-11-20T13:12:04.856Z,11.67
2022-11-20T13:14:32.088Z,12.07
2022-11-20T13:17:25.677Z,14.50
2022-11-20T13:19:54.820Z,14.33
2022-11-20T13:22:44.111Z,14.13
2022-11-20T13:25:16.297Z,14.37
2022-11-20T13:27:50.362Z,17.70
2022-11-20T13:30:19.189Z,15.77
2022-11-20T13:32:52.109Z,18.50
2022-11-20T13:35:29.763Z,19.03
2022-11-20T13:38:03.084Z,27.93
2022-11-20T13:40:30.213Z,24.43
2022-11-20T13:43:26.696Z,22.63
2022-11-20T13:46:00.164Z,20.73
2022-11-20T13:48:33.194Z,26.73
2022-11-20T13:51:19.103Z,24.20
2022-11-20T13:53:49.171Z,26.87
2022-11-20T13:56:22.114Z,22.40
2022-11-20T13:59:02.306Z,26.00
2022-11-20T14:01:33.001Z,25.10
2022-11-20T14:04:07.596Z,29.17
2022-11-20T14:06:46.301Z,30.03
2022-11-20T14:09:32.202Z,28.70
2022-11-20T14:11:59.645Z,25.97
2022-11-20T14:14:28.786Z,25.03
2022-11-20T14:17:24.275Z,24.07
2022-11-20T14:19:52.756Z,28.50
2022-11-20T14:22:24.981Z,30.00
2022-11-20T14:25:08.579Z,24.70
2022-11-20T14:27:38.555Z,25.03
2022-11-20T14:30:06.122Z,25.63
2022-11-20T14:32:35.936Z,24.53
2022-11-20T14:35:12.279Z,25.90
2022-11-20T14:37:41.746Z,24.40
2022-11-20T14:40:31.963Z,25.20
2022-11-20T14:42:59.926Z,24.20
2022-11-20T14:45:27.416Z,23.83
2022-11-20T14:47:57.727Z,26.33
2022-11-20T14:50:25.991Z,25.67
2022-11-20T14:52:57.772Z,23.80
2022-11-20T14:55:38.336Z,25.70
2022-11-20T14:58:25.447Z,29.77
2022-11-20T15:01:07.002Z,27.43
2022-11-20T15:03:41.292Z,26.77
2022-11-20T15:06:11.465Z,28.23
2022-11-20T15:08:38.267Z,25.53
2022-11-20T15:11:22.412Z,22.83
2022-11-20T15:13:49.045Z,25.27
2022-11-20T15:16:24.477Z,27.40
2022-11-20T15:18:51.432Z,29.07
2022-11-20T15:21:21.819Z,28.03
2022-11-20T15:23:48.882Z,24.63
2022-11-20T15:26:23.341Z,27.97
2022-11-20T15:28:51.125Z,26.47
2022-11-20T15:31:21.438Z,26.07
2022-11-20T15:33:48.746Z,24.90
2022-11-20T15:36:15.776Z,25.13
2022-11-20T15:38:42.597Z,26.80
2022-11-20T15:41:10.008Z,21.00
2022-11-20T15:43:36.923Z,31.23
2022-11-20T15:46:15.950Z,31.20
2022-11-20T15:48:48.209Z,22.20
2022-11-20T15:51:24.968Z,24.97
2022-11-20T15:53:51.647Z,27.63
2022-11-20T15:56:18.294Z,27.33
2022-11-20T15:58:45.013Z,25.00
2022-11-20T16:01:14.314Z,26.13
2022-11-20T16:03:42.294Z,22.37
2022-11-20T16:06:09.337Z,24.17
2022-11-20T16:08:35.997Z,26.50
2022-11-20T16:11:02.851Z,27.63
2022-11-20T16:13:49.941Z,28.60
2022-11-20T16:16:26.877Z,26.23
2022-11-20T16:18:53.533Z,24.87
2022-11-20T16:21:20.345Z,21.37
2022-11-20T16:23:49.741Z,27.27
2022-11-20T16:26:19.409Z,24.40
2022-11-20T16:28:46.228Z,22.27
2022-11-20T16:31:18.317Z,24.83
2022-11-20T16:33:50.796Z,23.33
2022-11-20T16:36:18.178Z,24.53
2022-11-20T16:38:44.825Z,24.70
2022-11-20T16:41:14.493Z,23.93
2022-11-20T16:43:52.474Z,24.20
2022-11-20T16:46:21.715Z,30.00
2022-11-20T16:48:59.546Z,23.63
2022-11-20T16:51:27.288Z,24.80
2022-11-20T16:53:55.931Z,28.53
2022-11-20T16:56:25.228Z,22.60
2022-11-20T16:58:53.640Z,22.63
2022-11-20T17:01:21.998Z,22.90
2022-11-20T17:03:55.062Z,25.10
2022-11-20T17:06:24.122Z,26.60
2022-11-20T17:08:50.925Z,26.57
2022-11-20T17:11:19.525Z,25.57
2022-11-20T17:13:46.798Z,26.43
2022-11-20T17:16:16.908Z,25.60
2022-11-20T17:18:44.333Z,24.90
2022-11-20T17:21:12.905Z,25.40
2022-11-20T17:23:42.049Z,22.87
2022-11-20T17:26:21.675Z,29.47
2022-11-20T17:29:01.085Z,26.17
2022-11-20T17:31:29.199Z,22.30
2022-11-20T17:33:56.359Z,25.03
2022-11-20T17:36:23.269Z,25.53
2022-11-20T17:38:51.940Z,20.90
2022-11-20T17:41:22.330Z,24.03
2022-11-20T17:43:49.633Z,24.10
2022-11-20T17:46:21.569Z,24.13
2022-11-20T17:48:51.567Z,22.73
2022-11-20T17:51:26.877Z,23.00
2022-11-20T17:53:56.436Z,27.87
2022-11-20T17:56:43.302Z,27.03
2022-11-20T17:59:12.696Z,28.63
2022-11-20T18:01:42.879Z,25.20
2022-11-20T18:04:10.547Z,25.80
2022-11-20T18:06:37.338Z,25.67
2022-11-20T18:09:05.461Z,24.30
2022-11-20T18:11:34.749Z,24.83
2022-11-20T18:14:24.311Z,24.73
2022-11-20T18:16:57.012Z,27.53
2022-11-20T18:19:31.440Z,31.37
2022-11-20T18:22:01.203Z,25.37
2022-11-20T18:24:27.906Z,27.60
2022-11-20T18:26:54.567Z,29.13
2022-11-20T18:29:21.618Z,24.23
2022-11-20T18:31:49.104Z,26.80
2022-11-20T18:34:15.842Z,26.13
2022-11-20T18:36:43.741Z,27.47
2022-11-20T18:39:11.987Z,31.90
2022-11-20T18:41:57.737Z,28.13
2022-11-20T18:44:45.571Z,31.17
2022-11-20T18:47:15.851Z,31.40
2022-11-20T18:49:46.346Z,33.47
2022-11-20T18:52:13.627Z,36.00
2022-11-20T18:54:40.418Z,31.00
2022-11-20T18:57:07.478Z,28.73
2022-11-20T18:59:34.143Z,26.50
2022-11-20T19:02:00.914Z,26.47
2022-11-20T19:04:28.076Z,26.57
2022-11-20T19:06:56.280Z,22.83
2022-11-20T19:09:24.159Z,30.90
2022-11-20T19:11:51.471Z,21.43
2022-11-20T19:14:18.291Z,21.43
2022-11-20T19:16:45.031Z,17.40
2022-11-20T19:19:11.903Z,19.73
2022-11-20T19:21:38.548Z,16.83
2022-11-20T19:24:05.696Z,14.97
2022-11-20T19:26:35.613Z,15.43
2022-11-20T19:29:03.497Z,19.07
2022-11-20T19:31:30.446Z,16.60
2022-11-20T19:34:02.357Z,17.83
2022-11-20T19:36:34.856Z,16.27
2022-11-20T19:39:05.486Z,14.50
2022-11-20T19:41:33.900Z,15.57
2022-11-20T19:44:02.983Z,15.73
2022-11-20T19:46:32.176Z,19.63
2022-11-20T19:48:58.899Z,16.23
2022-11-20T19:51:31.342Z,17.97
2022-11-20T19:53:59.481Z,16.50
2022-11-20T19:56:28.213Z,17.50
2022-11-20T19:58:55.665Z,17.37
2022-11-20T20:01:25.464Z,16.57
2022-11-20T20:03:57.612Z,16.80
2022-11-20T20:06:27.859Z,17.87
2022-11-20T20:09:14.934Z,15.90
2022-11-20T20:11:45.487Z,21.70
2022-11-20T20:14:15.318Z,16.07
2022-11-20T20:16:42.646Z,18.53
2022-11-20T20:19:13.648Z,14.43
2022-11-20T20:21:41.370Z,14.03
2022-11-20T20:24:13.407Z,14.60
2022-11-20T20:26:40.454Z,15.23
2022-11-20T20:29:07.176Z,11.00
2022-11-20T20:31:34.133Z,13.20
2022-11-20T20:34:01.531Z,12.07
2022-11-20T20:36:28.268Z,12.60
2022-11-20T20:38:56.543Z,13.63
2022-11-20T20:41:24.958Z,15.07
2022-11-20T20:44:11.492Z,17.90
2022-11-20T20:46:38.506Z,13.50
2022-11-20T20:49:05.531Z,14.70
2022-11-20T20:51:32.178Z,15.83
2022-11-20T20:53:59.354Z,13.60
2022-11-20T20:56:26.110Z,16.77
2022-11-20T20:58:52.795Z,12.97
2022-11-20T21:01:20.200Z,14.03
2022-11-20T21:03:46.994Z,13.77
2022-11-20T21:06:13.990Z,13.30
2022-11-20T21:08:42.093Z,17.07
2022-11-20T21:11:13.088Z,15.13
2022-11-20T21:13:41.241Z,16.40
2022-11-20T21:16:08.023Z,18.10
2022-11-20T21:18:35.192Z,17.40
2022-11-20T21:21:27.578Z,15.70
2022-11-20T21:23:54.360Z,16.80
2022-11-20T21:26:23.303Z,17.83
2022-11-20T21:28:50.327Z,41.77
2022-11-20T21:31:22.349Z,34.57
2022-11-20T21:33:51.421Z,32.00
2022-11-20T21:36:22.807Z,19.30
2022-11-20T21:38:52.349Z,31.93
2022-11-20T21:41:21.686Z,37.17
2022-11-20T21:44:15.901Z,20.77
2022-11-20T21:46:39.091Z,35.80
2022-11-20T21:49:06.203Z,78.87
2022-11-20T21:51:33.290Z,27.57
2022-11-20T21:54:00.365Z,26.73
2022-11-20T21:56:27.486Z,25.57
2022-11-20T21:58:55.053Z,44.43
2022-11-20T22:01:22.133Z,21.40
2022-11-20T22:03:53.295Z,30.03
2022-11-20T22:06:20.993Z,29.00
2022-11-20T22:08:48.990Z,53.43
2022-11-20T22:11:17.401Z,26.93
2022-11-20T22:14:03.738Z,45.93
2022-11-20T22:16:33.624Z,22.03
2022-11-20T22:19:00.741Z,33.40
2022-11-20T22:21:29.047Z,22.40
2022-11-20T22:23:56.646Z,23.80
2022-11-20T22:26:25.064Z,21.90
2022-11-20T22:28:53.072Z,17.87
2022-11-20T22:31:21.577Z,24.87
2022-11-20T22:33:49.090Z,19.47
2022-11-20T22:36:17.452Z,22.23
2022-11-20T22:38:44.649Z,22.97
2022-11-20T22:41:15.865Z,21.67
2022-11-20T22:43:43.667Z,25.93
2022-11-20T22:46:18.086Z,22.80
2022-11-20T22:48:49.595Z,26.40
2022-11-20T22:51:17.681Z,29.10
2022-11-20T22:53:44.996Z,43.47
2022-11-20T22:56:13.240Z,26.27
2022-11-20T22:58:41.411Z,23.77
2022-11-20T23:01:12.816Z,30.03
2022-11-20T23:03:40.888Z,22.20
2022-11-20T23:06:09.733Z,25.63
2022-11-20T23:08:37.366Z,32.83
2022-11-20T23:11:05.960Z,27.27
2022-11-20T23:13:33.179Z,29.47
2022-11-20T23:16:04.995Z,26.57
2022-11-20T23:18:32.196Z,26.97
2022-11-20T23:21:12.723Z,29.43
2022-11-20T23:23:40.025Z,26.93
2022-11-20T23:26:10.441Z,33.57
2022-11-20T23:28:38.040Z,29.03
2022-11-20T23:31:05.646Z,29.37
2022-11-20T23:33:35.558Z,34.70
2022-11-20T23:36:02.773Z,30.13
2022-11-20T23:38:29.929Z,29.67
2022-11-20T23:40:57.096Z,28.33
2022-11-20T23:43:24.316Z,35.27
2022-11-20T23:45:55.702Z,26.93
2022-11-20T23:48:24.193Z,29.10
2022-11-20T23:50:51.571Z,25.73
2022-11-20T23:53:19.019Z,26.77
2022-11-20T23:55:50.153Z,29.10
2022-11-20T23:58:17.696Z,30.77
